createdAt,value
2023-12-09T00:01:48.839Z,0.29
2023-12-09T00:04:53.027Z,0.32
2023-12-09T00:08:04.251Z,0.33
2023-12-09T00:11:10.287Z,0.23
2023-12-09T00:14:14.854Z,0.27
2023-12-09T00:17:18.998Z,0.25
2023-12-09T00:20:27.234Z,0.27
2023-12-09T00:23:32.035Z,0.29
2023-12-09T00:26:39.374Z,0.26
2023-12-09T00:29:44.969Z,0.26
2023-12-09T00:32:48.564Z,0.25
2023-12-09T00:35:52.242Z,0.27
2023-12-09T00:38:59.195Z,0.30
2023-12-09T00:42:06.295Z,0.27
2023-12-09T00:45:10.334Z,0.24
2023-12-09T00:48:14.300Z,0.25
2023-12-09T00:51:17.961Z,0.33
2023-12-09T00:54:25.081Z,0.33
2023-12-09T00:57:30.880Z,0.26
2023-12-09T01:00:40.067Z,0.25
2023-12-09T01:03:43.554Z,0.29
2023-12-09T01:06:47.312Z,0.27
2023-12-09T01:09:53.564Z,0.29
2023-12-09T01:12:56.770Z,0.28
2023-12-09T01:16:00.664Z,0.26
2023-12-09T01:19:04.228Z,0.30
2023-12-09T01:22:40.143Z,0.29
2023-12-09T01:25:45.646Z,0.31
2023-12-09T01:28:49.952Z,0.27
2023-12-09T01:32:14.501Z,0.32
2023-12-09T01:35:20.177Z,0.29
2023-12-09T01:38:47.299Z,0.26
2023-12-09T01:42:14.825Z,0.26
2023-12-09T01:45:24.550Z,0.26
2023-12-09T01:48:31.131Z,0.32
2023-12-09T01:51:37.117Z,0.22
2023-12-09T01:54:40.636Z,0.16
2023-12-09T01:58:11.725Z,0.19
2023-12-09T02:01:15.439Z,0.25
2023-12-09T02:04:46.493Z,0.18
2023-12-09T02:07:49.949Z,0.14
2023-12-09T02:11:18.891Z,0.16
2023-12-09T02:14:54.499Z,0.14
2023-12-09T02:18:02.850Z,0.13
2023-12-09T02:21:08.109Z,0.14
2023-12-09T02:24:14.126Z,0.16
2023-12-09T02:27:55.449Z,0.14
2023-12-09T02:31:27.797Z,0.14
2023-12-09T02:34:32.760Z,0.14
2023-12-09T02:37:39.249Z,0.13
2023-12-09T02:40:45.866Z,0.14
2023-12-09T02:43:51.110Z,0.12
2023-12-09T02:46:57.891Z,0.15
2023-12-09T02:50:01.413Z,0.19
2023-12-09T02:53:06.775Z,0.15
2023-12-09T02:56:12.916Z,0.14
2023-12-09T02:59:16.189Z,0.17
2023-12-09T03:02:20.007Z,0.21
2023-12-09T03:05:24.092Z,0.17
2023-12-09T03:08:31.315Z,0.16
2023-12-09T03:11:34.691Z,0.17
2023-12-09T03:14:42.076Z,0.17
2023-12-09T03:17:46.432Z,0.16
2023-12-09T03:20:53.449Z,0.17
2023-12-09T03:24:16.026Z,0.16
2023-12-09T03:27:22.808Z,0.12
2023-12-09T03:30:26.756Z,0.11
2023-12-09T03:33:33.329Z,0.11
2023-12-09T03:36:36.373Z,0.12
2023-12-09T03:39:40.333Z,0.17
2023-12-09T03:42:45.155Z,0.18
2023-12-09T03:45:48.897Z,0.18
2023-12-09T03:48:53.009Z,0.24
2023-12-09T03:51:59.888Z,0.16
2023-12-09T03:55:05.480Z,0.19
2023-12-09T03:58:18.901Z,0.15
2023-12-09T04:01:26.305Z,0.13
2023-12-09T04:04:31.835Z,0.18
2023-12-09T04:07:37.916Z,0.15
2023-12-09T04:10:45.982Z,0.12
2023-12-09T04:13:50.555Z,0.04
2023-12-09T04:16:56.117Z,0.12
2023-12-09T04:20:01.838Z,0.10
2023-12-09T04:23:08.940Z,0.05
2023-12-09T04:26:14.266Z,0.02
2023-12-09T04:29:21.418Z,-0.01
2023-12-09T04:32:25.005Z,-0.01
2023-12-09T04:35:28.811Z,0.07
2023-12-09T04:38:34.060Z,0.06
2023-12-09T04:41:40.984Z,0.06
2023-12-09T04:44:47.078Z,0.08
2023-12-09T04:47:52.592Z,0.32
2023-12-09T04:52:00.308Z,0.12
2023-12-09T04:55:06.590Z,0.10
2023-12-09T04:58:33.587Z,0.08
2023-12-09T05:01:38.215Z,0.08
2023-12-09T05:05:01.012Z,0.08
2023-12-09T05:08:05.615Z,0.09
2023-12-09T05:11:11.559Z,0.08
2023-12-09T05:14:16.060Z,0.07
2023-12-09T05:17:19.448Z,-0.01
2023-12-09T05:20:45.863Z,0.03
2023-12-09T05:23:49.178Z,0.03
2023-12-09T05:26:53.321Z,0.05
2023-12-09T05:30:02.207Z,0.05
2023-12-09T05:33:07.872Z,0.04
2023-12-09T05:36:39.630Z,0.04
2023-12-09T05:39:44.203Z,0.08
2023-12-09T05:42:51.281Z,0.10
2023-12-09T05:46:00.700Z,0.07
2023-12-09T05:50:30.653Z,0.04
2023-12-09T05:53:35.106Z,0.04
2023-12-09T05:57:00.079Z,0.04
2023-12-09T06:00:06.645Z,0.12
2023-12-09T06:03:10.318Z,0.10
2023-12-09T06:06:16.532Z,0.09
2023-12-09T06:09:24.399Z,0.10
2023-12-09T06:12:29.259Z,0.08
2023-12-09T06:15:33.935Z,0.13
2023-12-09T06:18:37.428Z,0.12
2023-12-09T06:21:44.000Z,0.08
2023-12-09T06:24:54.568Z,0.11
2023-12-09T06:28:20.137Z,0.13
2023-12-09T06:31:43.295Z,0.12
2023-12-09T06:34:47.409Z,0.12
2023-12-09T06:37:50.854Z,0.09
2023-12-09T06:41:05.130Z,0.11
2023-12-09T06:44:08.466Z,0.12
2023-12-09T06:47:34.624Z,0.17
2023-12-09T06:51:09.773Z,0.16
2023-12-09T06:54:15.166Z,0.20
2023-12-09T06:57:19.087Z,0.26
2023-12-09T07:00:23.231Z,0.36
2023-12-09T07:03:49.932Z,0.25
2023-12-09T07:07:18.364Z,0.34
2023-12-09T07:10:27.300Z,0.39
2023-12-09T07:13:34.998Z,0.42
2023-12-09T07:16:39.503Z,0.45
2023-12-09T07:19:45.868Z,0.58
2023-12-09T07:23:08.968Z,0.49
2023-12-09T07:26:13.634Z,0.46
2023-12-09T07:29:20.038Z,0.57
2023-12-09T07:32:52.224Z,0.81
2023-12-09T07:40:14.229Z,0.58
2023-12-09T07:43:18.382Z,0.58
2023-12-09T07:46:22.859Z,0.64
2023-12-09T07:49:26.371Z,0.68
2023-12-09T07:52:30.712Z,0.72
2023-12-09T07:55:41.720Z,0.68
2023-12-09T07:58:47.281Z,0.82
2023-12-09T08:01:53.686Z,0.81
2023-12-09T08:04:57.021Z,0.93
2023-12-09T08:08:01.123Z,0.98
2023-12-09T08:11:10.261Z,0.96
2023-12-09T08:14:16.447Z,1.18
2023-12-09T08:17:40.567Z,1.07
2023-12-09T08:20:51.930Z,0.90
2023-12-09T08:23:57.307Z,1.03
2023-12-09T08:27:00.568Z,0.99
2023-12-09T08:30:07.658Z,0.98
2023-12-09T08:33:21.028Z,1.11
2023-12-09T08:36:25.258Z,1.18
2023-12-09T08:39:28.149Z,1.21
2023-12-09T08:42:31.875Z,1.09
2023-12-09T08:45:35.624Z,1.34
2023-12-09T08:48:39.671Z,1.36
2023-12-09T08:51:47.539Z,1.30
2023-12-09T08:54:53.848Z,1.69
2023-12-09T08:57:59.856Z,1.71
2023-12-09T09:01:29.860Z,1.86
2023-12-09T09:04:58.314Z,1.91
2023-12-09T09:08:22.312Z,1.90
2023-12-09T09:11:28.942Z,2.06
2023-12-09T09:14:35.128Z,1.70
2023-12-09T09:17:41.423Z,1.73
2023-12-09T09:20:47.192Z,2.11
2023-12-09T09:23:50.286Z,2.13
2023-12-09T09:27:00.095Z,1.83
2023-12-09T09:30:05.288Z,1.73
2023-12-09T09:33:16.008Z,1.81
2023-12-09T09:36:20.517Z,1.77
2023-12-09T09:39:44.504Z,1.63
2023-12-09T09:43:24.963Z,1.53
2023-12-09T09:46:50.350Z,1.85
2023-12-09T09:50:00.532Z,1.86
2023-12-09T09:53:13.543Z,1.88
2023-12-09T09:56:36.533Z,1.90
2023-12-09T09:59:44.840Z,1.95
2023-12-09T10:02:50.983Z,2.19
2023-12-09T10:09:50.863Z,2.13
2023-12-09T10:13:17.151Z,2.37
2023-12-09T10:16:40.264Z,2.36
2023-12-09T10:19:56.184Z,2.57
2023-12-09T10:23:01.594Z,2.67
2023-12-09T10:26:09.252Z,2.79
2023-12-09T10:29:18.015Z,2.67
2023-12-09T10:32:54.110Z,2.92
2023-12-09T10:35:58.377Z,3.17
2023-12-09T10:39:01.602Z,3.00
2023-12-09T10:42:05.845Z,3.22
2023-12-09T10:45:09.498Z,3.01
2023-12-09T10:48:16.525Z,3.03
2023-12-09T10:51:42.192Z,3.03
2023-12-09T10:54:47.373Z,3.14
2023-12-09T10:57:51.927Z,3.25
2023-12-09T11:00:59.256Z,3.41
2023-12-09T11:04:10.439Z,2.99
2023-12-09T11:07:16.165Z,2.82
2023-12-09T11:10:20.290Z,2.99
2023-12-09T11:13:30.894Z,3.00
2023-12-09T11:16:34.765Z,3.18
2023-12-09T11:20:11.875Z,3.23
2023-12-09T11:23:18.238Z,2.93
2023-12-09T11:26:31.622Z,3.17
2023-12-09T11:29:37.464Z,2.67
2023-12-09T11:33:00.829Z,2.56
2023-12-09T11:36:08.910Z,2.70
2023-12-09T11:39:22.299Z,2.79
2023-12-09T11:42:26.666Z,2.88
2023-12-09T11:45:32.970Z,2.63
2023-12-09T11:48:37.795Z,2.69
2023-12-09T11:51:40.849Z,2.38
2023-12-09T11:54:46.793Z,2.50
2023-12-09T11:57:51.836Z,2.11
2023-12-09T12:01:15.041Z,2.09
2023-12-09T12:04:18.383Z,1.91
2023-12-09T12:07:21.027Z,2.00
2023-12-09T12:10:27.507Z,2.09
2023-12-09T12:13:33.774Z,1.92
2023-12-09T12:16:43.649Z,1.66
2023-12-09T12:20:11.441Z,1.77
2023-12-09T12:23:26.446Z,1.72
2023-12-09T12:26:40.417Z,1.73
2023-12-09T12:30:05.403Z,1.60
2023-12-09T12:33:09.940Z,1.69
2023-12-09T12:36:15.068Z,1.93
2023-12-09T12:39:18.402Z,1.83
2023-12-09T12:42:21.710Z,1.68
2023-12-09T12:45:28.698Z,1.64
2023-12-09T12:48:36.922Z,1.66
2023-12-09T12:52:12.222Z,1.71
2023-12-09T12:55:17.692Z,1.64
2023-12-09T12:58:21.479Z,1.74
2023-12-09T13:01:44.269Z,1.60
2023-12-09T13:05:08.120Z,1.51
2023-12-09T13:08:11.495Z,1.67
2023-12-09T13:11:17.660Z,1.79
2023-12-09T13:14:43.701Z,1.63
2023-12-09T13:17:46.548Z,1.72
2023-12-09T13:20:51.669Z,1.37
2023-12-09T13:23:54.349Z,1.27
2023-12-09T13:26:58.642Z,1.42
2023-12-09T13:30:07.785Z,1.44
2023-12-09T13:33:11.052Z,1.36
2023-12-09T13:36:14.181Z,1.29
2023-12-09T13:39:17.619Z,1.27
2023-12-09T13:42:23.253Z,1.24
2023-12-09T13:45:27.895Z,1.12
2023-12-09T13:48:32.188Z,1.12
2023-12-09T13:51:59.726Z,1.03
2023-12-09T13:55:06.210Z,1.37
2023-12-09T13:58:09.722Z,1.04
2023-12-09T14:01:32.696Z,1.03
2023-12-09T14:04:36.483Z,0.95
2023-12-09T14:07:40.777Z,0.82
2023-12-09T14:11:05.123Z,0.88
2023-12-09T14:14:10.578Z,0.97
2023-12-09T14:17:16.416Z,0.87
2023-12-09T14:20:21.067Z,0.76
2023-12-09T14:23:27.446Z,0.83
2023-12-09T14:26:35.416Z,0.57
2023-12-09T14:29:38.757Z,0.58
2023-12-09T14:32:46.167Z,0.49
2023-12-09T14:35:49.848Z,0.47
2023-12-09T14:38:53.261Z,0.50
2023-12-09T14:41:58.904Z,0.57
2023-12-09T14:45:21.815Z,0.59
2023-12-09T14:48:31.110Z,0.50
2023-12-09T14:51:44.159Z,0.53
2023-12-09T14:55:09.005Z,0.43
2023-12-09T14:58:32.473Z,0.32
2023-12-09T15:01:35.909Z,0.24
2023-12-09T15:04:42.721Z,0.23
2023-12-09T15:07:48.683Z,0.25
2023-12-09T15:10:54.675Z,0.14
2023-12-09T15:14:00.138Z,0.08
2023-12-09T15:17:03.032Z,0.03
2023-12-09T15:20:10.638Z,0.11
2023-12-09T15:23:37.498Z,0.07
2023-12-09T15:27:01.929Z,0.05
2023-12-09T15:30:08.246Z,0.00
2023-12-09T15:33:11.362Z,0.00
2023-12-09T15:36:17.173Z,0.00
2023-12-09T15:39:40.774Z,-0.05
2023-12-09T15:42:45.818Z,-0.04
2023-12-09T15:45:49.124Z,-0.07
2023-12-09T15:48:55.370Z,0.08
2023-12-09T15:52:21.280Z,0.07
2023-12-09T15:55:24.985Z,-0.01
2023-12-09T15:58:32.862Z,-0.08
2023-12-09T16:01:36.892Z,0.05
2023-12-09T16:04:42.601Z,-0.08
2023-12-09T16:07:45.780Z,-0.03
2023-12-09T16:10:50.609Z,-0.13
2023-12-09T16:13:54.165Z,-0.07
2023-12-09T16:16:57.392Z,0.06
2023-12-09T16:20:03.916Z,-0.03
2023-12-09T16:23:09.247Z,-0.05
2023-12-09T16:26:15.024Z,0.14
2023-12-09T16:29:21.128Z,0.09
2023-12-09T16:32:24.134Z,0.14
2023-12-09T16:35:36.474Z,0.19
2023-12-09T16:38:41.668Z,0.02
2023-12-09T16:41:49.597Z,-0.06
2023-12-09T16:44:52.271Z,0.37
2023-12-09T16:47:57.839Z,0.01
2023-12-09T16:51:03.940Z,-0.05
2023-12-09T16:55:04.631Z,0.15
2023-12-09T16:58:11.349Z,0.15
2023-12-09T17:01:16.676Z,0.14
2023-12-09T17:04:20.197Z,0.28
2023-12-09T17:07:26.287Z,0.28
2023-12-09T17:10:34.025Z,0.09
2023-12-09T17:13:39.256Z,-0.11
2023-12-09T17:16:46.637Z,0.05
2023-12-09T17:20:10.565Z,0.18
2023-12-09T17:23:17.325Z,0.00
2023-12-09T17:26:20.305Z,-0.20
2023-12-09T17:29:28.178Z,-0.02
2023-12-09T17:32:31.330Z,0.07
2023-12-09T17:35:37.369Z,0.07
2023-12-09T17:38:42.745Z,-0.13
2023-12-09T17:41:48.063Z,-0.11
2023-12-09T17:44:52.868Z,-0.13
2023-12-09T17:48:17.274Z,-0.10
2023-12-09T17:51:22.382Z,-0.07
2023-12-09T17:54:28.404Z,-0.16
2023-12-09T17:57:34.323Z,-0.23
2023-12-09T18:00:39.698Z,-0.01
2023-12-09T18:03:43.556Z,-0.07
2023-12-09T18:06:46.771Z,-0.08
2023-12-09T18:09:50.786Z,0.08
2023-12-09T18:12:53.811Z,0.01
2023-12-09T18:15:59.037Z,0.15
2023-12-09T18:19:03.014Z,0.09
2023-12-09T18:22:10.109Z,-0.06
2023-12-09T18:25:15.281Z,-0.13
2023-12-09T18:28:19.566Z,0.02
2023-12-09T18:31:25.135Z,-0.16
2023-12-09T18:34:28.834Z,-0.18
2023-12-09T18:37:36.574Z,-0.14
2023-12-09T18:40:39.838Z,-0.12
2023-12-09T18:43:45.571Z,-0.21
2023-12-09T18:46:49.921Z,0.10
2023-12-09T18:49:56.070Z,-0.16
2023-12-09T18:52:59.723Z,-0.25
2023-12-09T18:56:05.499Z,-0.26
2023-12-09T18:59:08.826Z,-0.17
2023-12-09T19:02:15.896Z,-0.17
2023-12-09T19:05:51.777Z,-0.15
2023-12-09T19:08:55.521Z,0.03
2023-12-09T19:12:01.195Z,-0.03
2023-12-09T19:15:33.949Z,0.11
2023-12-09T19:18:43.711Z,0.28
2023-12-09T19:25:49.540Z,0.02
2023-12-09T19:28:53.577Z,-0.03
2023-12-09T19:36:25.982Z,-0.17
2023-12-09T19:39:33.824Z,-0.12
2023-12-09T19:42:39.142Z,-0.12
2023-12-09T19:45:44.870Z,-0.24
2023-12-09T19:48:48.140Z,-0.14
2023-12-09T19:51:53.926Z,-0.24
2023-12-09T19:54:57.454Z,-0.31
2023-12-09T19:58:06.777Z,-0.32
2023-12-09T20:01:13.244Z,-0.24
2023-12-09T20:04:28.955Z,-0.31
2023-12-09T20:07:32.408Z,-0.15
2023-12-09T20:10:54.000Z,-0.14
2023-12-09T20:13:58.539Z,-0.17
2023-12-09T20:17:01.858Z,-0.14
2023-12-09T20:20:09.854Z,-0.33
2023-12-09T20:23:19.512Z,-0.19
2023-12-09T20:26:43.235Z,-0.34
2023-12-09T20:29:46.680Z,-0.30
2023-12-09T20:32:50.368Z,-0.28
2023-12-09T20:40:37.412Z,-0.36
2023-12-09T20:48:31.771Z,-0.34
2023-12-09T20:55:29.532Z,-0.34
2023-12-09T20:58:36.494Z,-0.26
2023-12-09T21:06:16.092Z,-0.31
2023-12-09T21:09:28.760Z,-0.32
2023-12-09T21:12:31.690Z,-0.41
2023-12-09T21:15:39.241Z,-0.48
2023-12-09T21:18:45.574Z,-0.26
2023-12-09T21:21:48.769Z,-0.28
2023-12-09T21:25:02.862Z,-0.36
2023-12-09T21:28:16.998Z,-0.31
2023-12-09T21:31:19.996Z,-0.51
2023-12-09T21:34:31.646Z,-0.45
2023-12-09T21:37:40.425Z,-0.49
2023-12-09T21:41:24.317Z,-0.28
2023-12-09T21:44:49.077Z,-0.34
2023-12-09T21:48:17.126Z,-0.25
2023-12-09T21:51:21.803Z,-0.29
2023-12-09T21:54:25.792Z,-0.56
2023-12-09T21:57:30.655Z,-0.58
2023-12-09T22:00:36.927Z,-0.46
2023-12-09T22:03:45.646Z,-0.34
2023-12-09T22:06:48.719Z,-0.40
2023-12-09T22:09:52.699Z,-0.43
2023-12-09T22:13:18.805Z,-0.49
2023-12-09T22:16:23.282Z,-0.54
2023-12-09T22:19:49.029Z,-0.63
2023-12-09T22:22:55.458Z,-0.63
2023-12-09T22:25:59.517Z,-0.42
2023-12-09T22:29:03.731Z,-0.48
2023-12-09T22:32:08.724Z,-0.66
2023-12-09T22:35:12.115Z,-0.47
2023-12-09T22:38:15.587Z,-0.67
2023-12-09T22:41:25.522Z,-0.57
2023-12-09T22:44:48.911Z,-0.68
2023-12-09T22:47:52.872Z,-0.60
2023-12-09T22:50:57.247Z,-0.45
2023-12-09T22:54:00.541Z,-0.65
2023-12-09T22:57:10.334Z,-0.55
2023-12-09T23:00:33.972Z,-0.49
2023-12-09T23:03:39.203Z,-0.58
2023-12-09T23:06:43.611Z,-0.63
2023-12-09T23:09:46.709Z,-0.54
2023-12-09T23:12:51.964Z,-0.44
2023-12-09T23:15:54.702Z,-0.46
2023-12-09T23:19:00.068Z,-0.54
2023-12-09T23:22:03.522Z,-0.49
2023-12-09T23:25:07.600Z,-0.44
2023-12-09T23:28:12.954Z,-0.41
2023-12-09T23:31:22.494Z,-0.53
2023-12-09T23:34:31.603Z,-0.46
2023-12-09T23:37:35.616Z,-0.50
2023-12-09T23:40:42.765Z,-0.55
2023-12-09T23:43:46.223Z,-0.47
2023-12-09T23:46:50.875Z,-0.42
2023-12-09T23:49:55.785Z,-0.57
2023-12-09T23:52:59.245Z,-0.51
2023-12-09T23:56:04.588Z,-0.43
2023-12-09T23:59:07.748Z,-0.51
